Time;durP1;ratioP1;P1;durP2;ratioP2;P2;SDS_P1;SDS_P2;PMS_P1;PMS_P2;Temp;Humidity;BMP_temperature;BMP_pressure;BME280_temperature;BME280_humidity;BME280_pressure;Samples;Min_cycle;Max_cycle;Signal;HPM_P1;HPM_P2
2023/07/23 00:01:58;;;;;;;3.78;1.90;;;;;;;12.98;68.47;99685.41;4945113;29;20063;-80
2023/07/23 00:04:23;;;;;;;3.17;1.40;;;;;;;12.98;68.37;99677.59;4944770;29;20040;-80
2023/07/23 00:06:49;;;;;;;1.20;1.05;;;;;;;13.00;68.80;99681.00;4944843;29;20119;-80
2023/07/23 00:09:14;;;;;;;2.67;1.42;;;;;;;13.02;68.84;99692.22;4944836;29;20103;-80
2023/07/23 00:11:39;;;;;;;2.08;1.27;;;;;;;13.02;68.94;99687.00;4996359;28;20033;-80
2023/07/23 00:14:18;;;;;;;1.90;1.00;;;;;;;13.05;68.87;99684.31;5043436;28;20029;-80
2023/07/23 00:16:44;;;;;;;5.97;1.33;;;;;;;13.10;68.76;99687.63;5044641;28;20021;-81
2023/07/23 00:19:15;;;;;;;5.03;1.08;;;;;;;13.09;68.80;99685.06;5044207;28;20457;-81
2023/07/23 00:21:41;;;;;;;1.73;1.13;;;;;;;13.12;69.05;99690.19;5043406;28;20017;-81
2023/07/23 00:24:07;;;;;;;1.60;1.08;;;;;;;13.09;68.95;99683.34;5044151;28;20036;-80
2023/07/23 00:26:33;;;;;;;1.90;1.23;;;;;;;13.07;69.10;99679.03;5042955;28;20055;-80
2023/07/23 00:28:59;;;;;;;3.78;1.23;;;;;;;13.11;68.83;99686.75;5044449;28;20056;-81
2023/07/23 00:31:24;;;;;;;2.15;1.13;;;;;;;13.08;69.11;99679.00;5044146;28;20025;-81
2023/07/23 00:33:55;;;;;;;2.05;1.13;;;;;;;13.02;69.44;99673.97;5042763;28;20032;-80
2023/07/23 00:36:20;;;;;;;1.05;0.90;;;;;;;13.01;69.83;99674.88;5042932;28;20040;-80
2023/07/23 00:38:46;;;;;;;1.20;1.02;;;;;;;13.04;69.63;99677.41;5044089;28;20026;-81
2023/07/23 00:41:11;;;;;;;2.75;1.13;;;;;;;13.11;69.64;99689.34;5042785;28;20397;-81
2023/07/23 00:43:36;;;;;;;1.35;1.10;;;;;;;13.14;70.01;99684.06;5044244;28;20025;-80
2023/07/23 00:46:02;;;;;;;1.15;0.77;;;;;;;13.16;69.74;99684.00;5026336;28;20025;-81
2023/07/23 00:48:28;;;;;;;1.48;1.02;;;;;;;13.21;69.93;99683.84;5044004;28;20378;-81
2023/07/23 00:50:55;;;;;;;1.60;1.10;;;;;;;13.24;70.01;99688.97;5026151;28;20032;-81
2023/07/23 00:53:21;;;;;;;2.20;1.10;;;;;;;13.29;70.22;99687.06;5042603;28;20120;-80
2023/07/23 00:55:47;;;;;;;4.07;1.50;;;;;;;13.30;70.11;99680.97;5044127;28;20029;-80
2023/07/23 00:58:13;;;;;;;10.98;1.30;;;;;;;13.36;70.22;99680.75;5044023;28;20603;-80
2023/07/23 01:00:39;;;;;;;2.67;0.85;;;;;;;13.42;70.08;99681.47;5044120;28;20040;-79
2023/07/23 01:03:04;;;;;;;3.63;1.48;;;;;;;13.46;70.07;99675.25;5043835;28;20112;-80
2023/07/23 01:05:32;;;;;;;1.27;0.85;;;;;;;13.43;70.02;99670.13;5043324;28;20060;-80
2023/07/23 01:07:58;;;;;;;2.63;1.38;;;;;;;13.49;69.85;99673.41;5044644;28;20374;-80
2023/07/23 01:10:24;;;;;;;1.13;0.82;;;;;;;13.55;69.80;99672.38;5045979;28;20057;-79
2023/07/23 01:12:51;;;;;;;3.90;1.13;;;;;;;13.56;69.80;99674.06;5043824;28;20086;-80
2023/07/23 01:15:17;;;;;;;1.92;1.02;;;;;;;13.57;69.86;99674.94;5025102;28;20056;-80
2023/07/23 01:17:43;;;;;;;1.80;1.15;;;;;;;13.60;69.79;99680.91;5042793;28;20018;-81
2023/07/23 01:20:08;;;;;;;5.32;1.17;;;;;;;13.59;69.64;99675.75;5024739;28;20063;-81
2023/07/23 01:22:36;;;;;;;4.78;1.92;;;;;;;13.53;69.64;99665.50;5043704;28;20025;-80
2023/07/23 01:25:32;;;;;;;2.83;1.25;;;;;;;13.50;69.64;99663.81;5043108;28;20071;-80
2023/07/23 01:32:47;;;;;;;;;;;;;;;;;;;;;
2023/07/23 01:35:14;;;;;;;10.48;2.80;;;;;;;13.47;69.80;99654.34;4978462;28;20031;-80
2023/07/23 01:37:40;;;;;;;4.13;1.40;;;;;;;13.47;69.60;99650.88;4965962;28;20486;-81
2023/07/23 01:40:06;;;;;;;1.98;1.48;;;;;;;13.48;69.48;99653.44;4985059;28;20584;-80
2023/07/23 01:42:32;;;;;;;4.00;1.38;;;;;;;13.45;69.76;99650.09;4984813;28;20027;-80
2023/07/23 01:45:04;;;;;;;5.88;1.05;;;;;;;13.48;70.38;99661.25;4968599;28;20077;-80
2023/07/23 01:47:29;;;;;;;;;;;;;;;13.49;70.81;99656.91;4986257;28;20035;-81
2023/07/23 01:49:58;;;;;;;3.30;1.33;;;;;;;13.46;70.36;99649.19;4969639;28;19921;-79
2023/07/23 01:52:23;;;;;;;1.80;1.20;;;;;;;13.47;70.34;99648.25;4985809;28;20109;-80
2023/07/23 01:54:58;;;;;;;4.78;1.05;;;;;;;13.44;70.29;99640.53;4985939;28;20027;-79
2023/07/23 01:57:23;;;;;;;1.20;1.10;;;;;;;13.44;70.44;99641.41;4969553;28;20022;-81
2023/07/23 01:59:49;;;;;;;1.85;1.17;;;;;;;13.42;70.78;99639.75;4985409;28;20077;-79
2023/07/23 02:02:14;;;;;;;4.65;1.23;;;;;;;13.38;70.35;99636.41;4984595;28;20101;-80
2023/07/23 02:04:40;;;;;;;6.88;1.00;;;;;;;13.35;70.78;99637.34;4968557;28;20125;-79
2023/07/23 02:07:05;;;;;;;3.42;1.10;;;;;;;13.33;70.89;99626.13;4985933;28;20159;-80
2023/07/23 02:09:31;;;;;;;1.80;1.25;;;;;;;13.28;71.02;99625.41;4985426;28;20101;-80
2023/07/23 02:11:56;;;;;;;4.15;1.45;;;;;;;13.27;70.91;99624.53;5005423;28;20044;-81
2023/07/23 02:14:22;;;;;;;1.80;1.20;;;;;;;13.30;71.32;99641.84;5046834;28;20021;-79
2023/07/23 02:16:47;;;;;;;2.05;1.27;;;;;;;13.27;71.42;99627.16;5046860;28;20025;-80
2023/07/23 02:19:13;;;;;;;2.75;1.55;;;;;;;13.30;71.14;99626.22;5045161;28;20032;-81
2023/07/23 02:21:39;;;;;;;2.78;1.13;;;;;;;13.22;71.39;99612.56;5046801;28;20025;-80
2023/07/23 02:24:05;;;;;;;1.27;0.98;;;;;;;13.31;71.25;99620.09;5046627;28;20029;-80
2023/07/23 02:26:31;;;;;;;6.22;1.70;;;;;;;13.29;71.80;99619.28;5028233;28;20358;-80
2023/07/23 02:28:56;;;;;;;2.35;1.60;;;;;;;13.37;71.45;99632.94;5028928;28;20017;-79
2023/07/23 02:31:21;;;;;;;1.40;1.17;;;;;;;13.42;71.35;99634.56;5044788;28;20116;-80
2023/07/23 02:33:47;;;;;;;9.20;1.60;;;;;;;13.46;71.21;99633.53;5028502;28;20020;-79
2023/07/23 02:36:12;;;;;;;1.80;1.20;;;;;;;13.48;71.16;99626.53;5045262;28;20018;-79
2023/07/23 02:38:38;;;;;;;2.47;1.42;;;;;;;13.48;71.23;99627.34;5046499;28;20025;-80
2023/07/23 02:41:03;;;;;;;13.10;1.67;;;;;;;13.50;71.41;99629.91;5046416;28;20029;-80
2023/07/23 02:43:28;;;;;;;2.22;1.50;;;;;;;13.51;71.62;99634.28;5028627;28;20021;-79
2023/07/23 02:45:54;;;;;;;3.95;1.10;;;;;;;13.48;71.54;99631.75;5046448;28;20383;-79
2023/07/23 02:48:19;;;;;;;2.28;1.42;;;;;;;13.49;71.49;99630.81;5044508;28;20025;-79
2023/07/23 02:50:45;;;;;;;1.65;1.02;;;;;;;13.49;71.56;99633.44;5043703;28;20044;-80
2023/07/23 02:53:10;;;;;;;1.83;1.33;;;;;;;13.47;71.43;99622.19;5046400;28;20036;-80
2023/07/23 02:55:36;;;;;;;3.88;1.67;;;;;;;13.48;71.62;99626.53;5044949;28;20093;-80
2023/07/23 02:58:04;;;;;;;2.08;1.20;;;;;;;13.45;71.19;99624.03;5046811;28;20029;-80
2023/07/23 03:00:30;;;;;;;2.10;1.20;;;;;;;13.46;71.37;99625.72;5046130;28;20041;-80
2023/07/23 03:02:56;;;;;;;2.30;1.42;;;;;;;13.42;71.33;99622.34;5046061;28;20336;-79
2023/07/23 03:05:25;;;;;;;3.55;1.23;;;;;;;13.38;71.59;99620.75;5046019;28;20025;-79
2023/07/23 03:07:54;;;;;;;4.68;1.25;;;;;;;13.27;71.56;99605.47;5045864;28;20052;-79
2023/07/23 03:10:22;;;;;;;3.25;1.52;;;;;;;13.35;71.32;99616.50;5046030;28;20018;-80
2023/07/23 03:12:47;;;;;;;2.33;1.20;;;;;;;13.33;71.31;99605.25;5028004;28;20041;-79
2023/07/23 03:15:13;;;;;;;4.63;1.50;;;;;;;13.31;71.27;99612.28;5028140;28;20093;-79
2023/07/23 03:17:38;;;;;;;5.18;1.58;;;;;;;13.32;71.16;99619.19;5027883;28;20089;-79
2023/07/23 03:20:04;;;;;;;5.13;1.38;;;;;;;13.35;71.03;99610.44;5045548;28;20048;-79
2023/07/23 03:22:30;;;;;;;7.40;1.85;;;;;;;13.37;70.95;99617.28;5045683;28;20017;-79
2023/07/23 03:24:55;;;;;;;4.60;1.80;;;;;;;13.33;71.11;99615.69;5027702;28;20067;-80
2023/07/23 03:27:21;;;;;;;1.55;1.15;;;;;;;13.42;71.15;99613.69;5027600;28;20018;-80
2023/07/23 03:29:46;;;;;;;2.17;1.40;;;;;;;13.45;71.31;99613.59;5045532;28;20508;-79
2023/07/23 03:32:12;;;;;;;3.42;1.55;;;;;;;13.70;71.78;99604.97;5045517;28;20075;-79
2023/07/23 03:34:37;;;;;;;4.63;1.92;;;;;;;14.13;72.35;99602.59;5045309;28;20104;-79
2023/07/23 03:37:11;;;;;;;5.97;1.50;;;;;;;14.69;72.91;99604.91;5045432;28;20026;-78
2023/07/23 03:39:41;;;;;;;2.15;1.38;;;;;;;15.21;72.57;99606.38;5044076;28;20048;-78
2023/07/23 03:42:12;;;;;;;2.58;2.22;;;;;;;15.73;72.64;99602.50;5027554;28;20089;-78
2023/07/23 03:44:37;;;;;;;2.05;1.25;;;;;;;16.22;72.55;99601.28;5045437;28;20057;-78
2023/07/23 03:47:37;;;;;;;2.80;1.40;;;;;;;16.69;71.96;99609.66;5043976;28;20028;-78
2023/07/23 03:50:02;;;;;;;2.03;1.38;;;;;;;17.15;71.16;99605.78;5044385;28;20037;-79
2023/07/23 03:52:51;;;;;;;2.65;1.23;;;;;;;17.48;71.46;99602.41;5045134;28;20026;-77
2023/07/23 03:58:19;;;;;;;5.00;1.60;;;;;;;18.39;70.50;99587.28;5044866;28;20029;-77
2023/07/23 04:00:44;;;;;;;1.95;1.20;;;;;;;18.93;70.79;99601.88;5045060;28;20078;-78
2023/07/23 04:03:09;;;;;;;2.22;1.27;;;;;;;19.42;70.43;99592.09;5026822;28;20033;-78
2023/07/23 04:05:35;;;;;;;5.38;1.50;;;;;;;19.82;69.21;99602.06;5044806;28;20043;-76
2023/07/23 04:08:02;;;;;;;1.50;1.17;;;;;;;20.27;68.85;99594.06;5026907;28;20025;-78
2023/07/23 04:10:27;;;;;;;1.45;0.85;;;;;;;20.83;68.42;99591.53;5044716;28;20022;-76
2023/07/23 04:12:53;;;;;;;1.00;0.75;;;;;;;21.33;67.53;99596.22;5044600;28;20496;-76
2023/07/23 04:15:18;;;;;;;3.40;1.55;;;;;;;21.69;66.53;99596.50;5026955;28;20026;-76
2023/07/23 04:17:44;;;;;;;1.45;1.08;;;;;;;21.97;64.21;99590.19;5044531;28;20025;-78
2023/07/23 04:20:09;;;;;;;1.55;0.88;;;;;;;22.46;64.34;99595.59;5043071;28;20112;-78
2023/07/23 04:22:35;;;;;;;1.50;1.00;;;;;;;22.80;64.02;99587.03;5044622;28;20470;-77
2023/07/23 04:25:00;;;;;;;2.80;1.20;;;;;;;23.05;62.34;99587.88;5044310;28;20046;-77
2023/07/23 04:27:26;;;;;;;3.95;1.08;;;;;;;23.22;61.28;99586.63;5044410;28;20547;-76
2023/07/23 04:29:53;;;;;;;1.17;0.90;;;;;;;23.24;59.35;99595.28;5043181;28;20117;-76
2023/07/23 04:32:19;;;;;;;1.35;0.70;;;;;;;23.14;58.58;99599.59;5026410;28;20022;-76
2023/07/23 04:34:45;;;;;;;7.63;1.00;;;;;;;23.24;59.86;99605.88;5026208;28;20051;-76
2023/07/23 04:37:11;;;;;;;2.83;0.90;;;;;;;23.40;58.62;99599.47;5042982;28;20022;-76
2023/07/23 04:39:44;;;;;;;1.75;0.93;;;;;;;22.94;57.37;99596.59;5043120;28;20112;-77
2023/07/23 04:42:09;;;;;;;1.40;0.80;;;;;;;22.70;57.48;99599.25;5044396;28;20092;-77
2023/07/23 04:44:35;;;;;;;0.77;0.50;;;;;;;22.51;57.32;99592.59;5026469;28;20132;-76
2023/07/23 04:47:00;;;;;;;2.00;0.70;;;;;;;22.10;57.11;99599.88;5042897;28;20022;-76
2023/07/23 04:49:26;;;;;;;2.50;1.05;;;;;;;22.36;56.99;99594.56;5043774;28;20299;-75
2023/07/23 04:51:54;;;;;;;1.30;0.73;;;;;;;22.92;56.03;99595.88;5042688;28;20065;-77
2023/07/23 04:54:19;;;;;;;1.55;0.80;;;;;;;23.36;55.04;99596.16;5044123;28;20021;-76
2023/07/23 04:56:44;;;;;;;0.73;0.52;;;;;;;23.76;54.05;99588.81;5026483;28;20109;-77
2023/07/23 04:59:10;;;;;;;2.40;1.17;;;;;;;24.31;54.19;99596.09;5043935;28;20488;-76
2023/07/23 05:01:35;;;;;;;1.88;1.15;;;;;;;24.62;53.32;99590.09;5043972;28;20018;-76
2023/07/23 05:04:01;;;;;;;1.20;0.77;;;;;;;25.21;52.95;99587.97;5025992;28;20093;-76
2023/07/23 05:06:26;;;;;;;1.45;0.82;;;;;;;25.48;50.14;99585.81;5042835;28;20025;-75
2023/07/23 05:08:51;;;;;;;1.67;0.85;;;;;;;25.72;49.54;99584.72;5043821;28;20036;-75
2023/07/23 05:11:17;;;;;;;2.33;1.00;;;;;;;26.21;49.11;99587.56;5043990;28;20032;-75
2023/07/23 05:13:42;;;;;;;2.15;0.70;;;;;;;26.51;46.43;99584.16;5044793;28;20032;-75
2023/07/23 05:16:09;;;;;;;3.05;0.95;;;;;;;26.82;45.61;99576.91;5030211;28;20025;-74
2023/07/23 05:18:34;;;;;;;2.78;0.73;;;;;;;26.89;43.86;99584.34;5047886;28;20505;-75
2023/07/23 05:21:02;;;;;;;1.02;0.70;;;;;;;27.22;44.02;99577.78;5030138;28;20152;-74
2023/07/23 05:23:27;;;;;;;4.05;0.93;;;;;;;27.37;43.11;99588.00;5047790;28;20071;-74
2023/07/23 05:25:55;;;;;;;1.42;0.65;;;;;;;27.42;40.06;99583.09;5029960;28;20076;-74
2023/07/23 05:28:21;;;;;;;1.17;0.80;;;;;;;27.24;37.99;99592.78;5030136;28;20028;-74
2023/07/23 05:30:46;;;;;;;1.02;0.80;;;;;;;27.06;39.21;99553.56;5030202;28;20100;-74
2023/07/23 05:33:12;;;;;;;1.23;0.90;;;;;;;27.19;38.23;99578.06;5046523;28;20438;-74
2023/07/23 05:35:38;;;;;;;1.75;1.08;;;;;;;27.29;38.51;99579.88;5046264;28;20099;-74
2023/07/23 05:38:04;;;;;;;1.25;0.60;;;;;;;27.62;38.64;99580.34;5047711;28;20087;-74
2023/07/23 05:40:31;;;;;;;1.33;0.90;;;;;;;27.59;39.27;99575.31;5029940;28;20557;-74
2023/07/23 05:42:59;;;;;;;1.15;0.63;;;;;;;27.51;37.65;99583.22;5047684;28;20025;-74
2023/07/23 05:45:24;;;;;;;0.57;0.57;;;;;;;27.49;37.03;99578.03;5047618;28;20024;-74
2023/07/23 05:47:49;;;;;;;3.90;1.48;;;;;;;27.18;36.16;99580.88;5047547;28;20421;-75
2023/07/23 05:50:15;;;;;;;1.48;0.63;;;;;;;27.18;36.67;99581.72;5047503;28;20149;-74
2023/07/23 05:52:40;;;;;;;2.20;0.90;;;;;;;27.03;36.36;99578.63;5047455;28;20018;-73
2023/07/23 05:55:06;;;;;;;1.30;0.90;;;;;;;27.12;36.37;99573.44;5047588;28;20030;-74
2023/07/23 05:57:32;;;;;;;1.50;0.68;;;;;;;27.34;36.55;99580.28;5047391;28;20025;-74
2023/07/23 05:59:57;;;;;;;1.63;0.77;;;;;;;27.63;37.37;99576.72;5047394;28;20049;-73
2023/07/23 06:02:22;;;;;;;1.25;0.60;;;;;;;27.93;36.93;99582.81;5047390;28;20032;-72
2023/07/23 06:04:48;;;;;;;1.00;0.70;;;;;;;27.89;36.80;99578.78;5047080;28;20029;-72
2023/07/23 06:07:13;;;;;;;2.03;0.75;;;;;;;27.50;35.46;99577.03;5047135;28;20022;-72
2023/07/23 06:09:39;;;;;;;1.92;0.93;;;;;;;27.43;35.78;99575.94;5047356;28;20268;-71
2023/07/23 06:12:05;;;;;;;2.40;0.73;;;;;;;27.40;35.61;99574.38;5046950;28;20026;-71
2023/07/23 06:14:30;;;;;;;2.35;0.80;;;;;;;27.47;34.74;99577.31;5047163;28;20051;-72
2023/07/23 06:16:55;;;;;;;2.72;0.95;;;;;;;27.60;35.68;99566.34;5046836;28;20025;-71
2023/07/23 06:19:21;;;;;;;1.63;0.57;;;;;;;27.75;35.84;99580.06;5046770;28;20108;-71
2023/07/23 06:21:46;;;;;;;2.30;0.70;;;;;;;27.76;34.92;99588.91;5029060;28;20018;-72
2023/07/23 06:24:12;;;;;;;1.23;0.70;;;;;;;27.33;34.77;99576.78;5047038;28;20028;-72
2023/07/23 06:26:37;;;;;;;1.02;0.65;;;;;;;27.31;34.96;99572.56;5046644;28;20072;-73
2023/07/23 06:29:15;;;;;;;1.05;0.77;;;;;;;26.75;34.21;99557.16;5046764;28;20036;-73
2023/07/23 06:31:57;;;;;;;1.60;1.35;;;;;;;26.46;34.96;99557.97;5046685;28;20036;-73
2023/07/23 06:34:28;;;;;;;1.00;0.63;;;;;;;26.18;35.42;99529.31;5045342;28;20022;-72
2023/07/23 06:36:54;;;;;;;2.00;0.93;;;;;;;26.13;34.93;99557.28;5046612;28;20029;-72
2023/07/23 06:39:20;;;;;;;0.98;0.73;;;;;;;25.19;35.76;99506.78;5028845;28;20030;-72
2023/07/23 06:41:48;;;;;;;0.73;0.50;;;;;;;25.26;36.31;99545.09;5045402;28;20017;-72
2023/07/23 06:44:14;;;;;;;2.33;0.90;;;;;;;25.72;37.06;99587.38;5046530;28;20048;-71
2023/07/23 06:46:40;;;;;;;3.35;1.00;;;;;;;25.61;35.82;99553.69;5028768;28;20025;-72
2023/07/23 06:49:05;;;;;;;1.13;0.77;;;;;;;25.68;35.71;99572.66;5028359;28;20025;-72
2023/07/23 06:51:30;;;;;;;2.55;0.93;;;;;;;25.10;35.25;99572.97;5028695;28;20029;-73
2023/07/23 06:53:58;;;;;;;0.98;0.63;;;;;;;24.29;36.22;99567.97;5046412;28;20129;-72
2023/07/23 06:56:24;;;;;;;1.40;0.85;;;;;;;23.80;37.41;99576.16;5046456;28;20068;-73
2023/07/23 06:58:49;;;;;;;1.65;0.88;;;;;;;23.48;38.17;99578.50;5028616;28;20455;-73
2023/07/23 07:01:15;;;;;;;2.50;1.00;;;;;;;23.91;38.71;99575.31;5028433;28;20089;-72
2023/07/23 07:03:40;;;;;;;3.33;0.90;;;;;;;24.56;38.50;99572.03;5046005;28;20040;-72
2023/07/23 07:06:06;;;;;;;1.58;0.90;;;;;;;25.06;37.80;99568.88;5045981;28;20034;-72
2023/07/23 07:08:32;;;;;;;1.90;0.98;;;;;;;25.31;36.35;99573.94;5045803;28;20021;-71
2023/07/23 07:10:58;;;;;;;3.60;0.90;;;;;;;25.49;35.88;99567.06;5044692;28;20030;-73
2023/07/23 07:13:31;;;;;;;1.27;0.65;;;;;;;24.75;36.00;99569.56;5027983;28;20021;-73
2023/07/23 07:16:00;;;;;;;1.95;0.90;;;;;;;23.87;36.69;99559.66;5046267;28;20030;-73
2023/07/23 07:18:25;;;;;;;2.20;1.42;;;;;;;23.09;37.94;99554.06;5027698;28;20488;-73
2023/07/23 07:20:58;;;;;;;1.40;1.10;;;;;;;22.61;38.68;99571.66;5027884;28;20023;-74
2023/07/23 07:23:27;;;;;;;1.63;0.80;;;;;;;22.09;40.03;99583.19;5045778;28;20048;-74
2023/07/23 07:26:26;;;;;;;1.65;0.90;;;;;;;21.67;41.23;99546.41;5045288;28;20062;-73
2023/07/23 07:28:51;;;;;;;2.42;1.27;;;;;;;22.02;41.47;99522.00;4964752;29;20043;-69
2023/07/23 07:31:24;;;;;;;1.52;0.90;;;;;;;22.53;40.75;99549.25;4964795;29;20512;-73
2023/07/23 07:33:55;;;;;;;4.65;1.35;;;;;;;23.08;41.11;99537.38;4964271;29;20422;-74
2023/07/23 07:36:21;;;;;;;1.25;0.80;;;;;;;24.17;40.22;99546.78;4964377;28;20151;-73
2023/07/23 07:38:54;;;;;;;3.78;0.95;;;;;;;25.07;39.25;99527.22;4964543;29;20032;-73
2023/07/23 07:41:20;;;;;;;3.05;0.85;;;;;;;25.74;37.93;99535.75;4964600;29;20019;-72
2023/07/23 07:43:46;;;;;;;2.28;1.40;;;;;;;26.50;36.41;99570.03;4964641;29;20097;-72
2023/07/23 07:46:11;;;;;;;1.55;0.73;;;;;;;26.82;35.63;99560.13;4964444;29;20036;-71
2023/07/23 07:48:37;;;;;;;1.05;0.80;;;;;;;26.99;35.05;99563.88;4964245;29;20035;-71
2023/07/23 07:51:06;;;;;;;1.60;0.98;;;;;;;27.24;33.75;99572.31;4964278;29;20050;-73
2023/07/23 07:53:33;;;;;;;1.17;0.88;;;;;;;27.07;34.33;99561.41;4964632;29;20062;-74
2023/07/23 07:56:00;;;;;;;3.40;0.80;;;;;;;27.42;34.05;99561.75;4964575;29;20031;-75
2023/07/23 07:58:34;;;;;;;1.83;0.80;;;;;;;27.56;32.70;99575.59;4964173;29;20043;-73
2023/07/23 08:01:13;;;;;;;1.92;1.02;;;;;;;27.53;32.67;99573.22;4964451;29;20023;-73
2023/07/23 08:04:09;;;;;;;;;;;;;;;;;;;;;
2023/07/23 08:06:46;;;;;;;1.92;0.80;;;;;;;27.48;31.56;99555.00;5045160;28;20101;-74
2023/07/23 08:09:20;;;;;;;1.20;0.85;;;;;;;27.47;32.32;99566.66;5044785;28;20045;-74
2023/07/23 08:11:47;;;;;;;1.25;0.80;;;;;;;27.41;29.92;99541.44;5044941;28;20021;-74
2023/07/23 08:14:13;;;;;;;2.35;1.08;;;;;;;27.51;30.06;99560.03;5026987;28;20032;-75
2023/07/23 08:16:52;;;;;;;;;;;;;;;;;;;;;
2023/07/23 08:19:18;;;;;;;2.53;0.65;;;;;;;27.81;28.87;99581.31;5044674;28;20081;-76
2023/07/23 08:21:43;;;;;;;1.45;0.80;;;;;;;27.77;29.77;99579.91;5044888;28;20044;-74
2023/07/23 08:24:09;;;;;;;1.60;0.98;;;;;;;27.99;29.76;99569.88;5026873;28;20017;-74
2023/07/23 08:26:39;;;;;;;0.60;0.50;;;;;;;28.07;29.44;99568.16;5044448;28;20057;-74
2023/07/23 08:29:08;;;;;;;1.15;0.63;;;;;;;27.93;29.22;99576.63;5044201;28;20227;-72
2023/07/23 08:31:33;;;;;;;1.10;0.65;;;;;;;28.18;28.82;99585.78;5044458;28;20055;-73
2023/07/23 08:34:02;;;;;;;1.85;0.95;;;;;;;28.42;27.99;99568.41;5042707;28;20089;-70
2023/07/23 08:36:29;;;;;;;1.80;0.95;;;;;;;28.33;27.77;99567.50;5044666;28;20017;-74
2023/07/23 08:38:54;;;;;;;1.55;0.70;;;;;;;28.60;28.23;99577.41;5044220;28;20077;-66
2023/07/23 08:41:35;;;;;;;1.15;0.75;;;;;;;28.94;28.06;99574.06;5044414;28;20282;-71
2023/07/23 08:44:36;;;;;;;0.95;0.60;;;;;;;29.47;28.48;99576.84;5044317;28;20029;-66
2023/07/23 08:47:12;;;;;;;1.33;0.98;;;;;;;30.10;28.30;99568.66;5044137;28;20021;-65
2023/07/23 08:49:42;;;;;;;2.08;0.80;;;;;;;30.34;28.14;99571.63;5043818;28;20030;-65
2023/07/23 08:52:10;;;;;;;0.95;0.52;;;;;;;30.38;27.64;99576.47;5044166;28;20385;-68
2023/07/23 08:54:36;;;;;;;1.67;0.60;;;;;;;30.57;26.63;99577.19;5044158;28;20029;-72
2023/07/23 08:57:03;;;;;;;0.70;0.52;;;;;;;30.66;27.28;99578.03;5043892;28;20025;-70
2023/07/23 08:59:30;;;;;;;2.47;0.73;;;;;;;30.73;27.38;99580.88;5043878;28;20021;-67
2023/07/23 09:01:56;;;;;;;0.90;0.60;;;;;;;30.97;27.73;99582.78;5026146;28;20394;-73
2023/07/23 09:04:22;;;;;;;2.70;0.95;;;;;;;31.31;26.57;99578.25;5025892;28;20026;-68
2023/07/23 09:06:48;;;;;;;0.70;0.47;;;;;;;31.28;25.40;99578.56;5043949;28;20075;-66
2023/07/23 09:09:14;;;;;;;1.85;0.82;;;;;;;31.07;25.19;99573.75;5044000;28;20025;-71
2023/07/23 09:11:40;;;;;;;0.60;0.47;;;;;;;30.58;25.09;99562.78;5026200;28;20021;-70
2023/07/23 09:14:09;;;;;;;2.05;0.65;;;;;;;30.24;26.02;99571.75;5044083;28;20087;-67
2023/07/23 09:16:40;;;;;;;1.13;0.75;;;;;;;30.00;26.38;99567.97;5043927;28;20084;-68
2023/07/23 09:19:08;;;;;;;1.52;0.75;;;;;;;29.90;26.37;99574.28;5043842;28;20072;-70
2023/07/23 09:21:34;;;;;;;0.85;0.60;;;;;;;29.94;26.49;99569.41;5026021;28;20025;-64
2023/07/23 09:24:02;;;;;;;0.82;0.68;;;;;;;29.84;26.58;99566.03;5043798;28;20036;-67
2023/07/23 09:26:28;;;;;;;0.60;0.50;;;;;;;30.28;26.29;99565.06;5043650;28;20054;-66
2023/07/23 09:28:57;;;;;;;0.93;0.50;;;;;;;30.54;26.73;99564.94;5043559;28;20081;-66
2023/07/23 09:31:29;;;;;;;0.82;0.73;;;;;;;31.04;25.88;99564.16;5043458;28;20022;-65
2023/07/23 09:33:56;;;;;;;2.05;0.55;;;;;;;31.23;25.60;99557.63;5043375;28;20029;-65
2023/07/23 09:36:26;;;;;;;1.50;0.70;;;;;;;31.54;25.86;99567.66;5043802;28;20025;-64
2023/07/23 09:39:01;;;;;;;1.05;0.43;;;;;;;31.51;24.29;99559.97;5043433;28;20030;-64
2023/07/23 09:41:35;;;;;;;1.08;0.70;;;;;;;31.46;25.53;99570.38;5043116;28;20021;-64
2023/07/23 09:44:05;;;;;;;1.40;0.82;;;;;;;31.46;25.00;99562.31;5042971;28;20018;-64
2023/07/23 09:46:31;;;;;;;0.80;0.60;;;;;;;30.87;24.98;99556.16;5043386;28;20045;-66
2023/07/23 09:48:57;;;;;;;2.40;0.90;;;;;;;29.91;26.23;99564.41;5043513;28;20036;-65
2023/07/23 09:51:22;;;;;;;1.25;0.60;;;;;;;30.11;27.00;99564.16;5043558;28;20081;-65
2023/07/23 09:53:48;;;;;;;0.55;0.43;;;;;;;30.43;27.25;99555.38;5043495;28;20033;-65
2023/07/23 09:56:14;;;;;;;2.67;0.70;;;;;;;31.31;26.77;99555.97;5043444;28;20045;-65
2023/07/23 09:58:41;;;;;;;0.85;0.52;;;;;;;31.86;25.94;99558.84;5043328;28;20018;-66
2023/07/23 10:01:07;;;;;;;1.10;0.77;;;;;;;31.64;25.44;99553.22;5046275;28;20018;-65
2023/07/23 10:03:34;;;;;;;2.20;0.70;;;;;;;31.74;25.29;99555.72;5047047;28;20047;-64
2023/07/23 10:05:59;;;;;;;0.60;0.60;;;;;;;31.46;25.00;99556.97;5046740;28;20025;-66
2023/07/23 10:08:27;;;;;;;1.50;0.80;;;;;;;30.97;26.31;99539.06;5046828;28;20041;-64
2023/07/23 10:10:52;;;;;;;1.23;0.73;;;;;;;31.27;26.32;99547.41;5046912;28;20041;-66
2023/07/23 10:13:18;;;;;;;0.65;0.55;;;;;;;31.41;26.04;99541.38;5046767;28;20021;-64
2023/07/23 10:15:44;;;;;;;1.40;0.82;;;;;;;31.93;25.67;99543.72;5046839;28;20093;-65
2023/07/23 10:18:11;;;;;;;0.77;0.70;;;;;;;31.62;25.05;99534.63;5046839;28;20025;-65
2023/07/23 10:20:38;;;;;;;1.13;0.63;;;;;;;30.59;25.55;99535.03;5045295;28;20032;-66
2023/07/23 10:23:05;;;;;;;0.70;0.50;;;;;;;29.46;26.87;99537.72;5046675;28;20022;-65
2023/07/23 10:25:32;;;;;;;0.88;0.50;;;;;;;28.44;27.78;99542.41;5046575;28;20045;-66
2023/07/23 10:28:03;;;;;;;1.48;0.60;;;;;;;27.78;29.33;99541.63;5046385;28;20052;-65
2023/07/23 10:30:30;;;;;;;3.25;0.70;;;;;;;28.47;29.36;99529.75;5046501;28;20021;-65
2023/07/23 10:33:11;;;;;;;1.77;0.65;;;;;;;29.10;29.00;99533.34;5045144;28;20524;-64
2023/07/23 10:35:48;;;;;;;2.73;0.90;;;;;;;29.94;28.48;99526.63;5046320;28;20043;-64
2023/07/23 10:38:24;;;;;;;0.82;0.50;;;;;;;30.04;28.03;99526.50;5046267;28;20038;-64
2023/07/23 10:40:50;;;;;;;1.23;0.55;;;;;;;29.98;28.66;99527.13;5046387;28;20036;-65
2023/07/23 10:43:16;;;;;;;1.55;0.88;;;;;;;29.97;28.59;99523.63;5046139;28;20033;-65
2023/07/23 10:46:01;;;;;;;2.50;0.75;;;;;;;29.36;29.04;99531.66;5046068;28;20033;-66
2023/07/23 10:48:57;;;;;;;1.48;0.75;;;;;;;29.63;29.59;99527.16;5046287;28;20032;-65
2023/07/23 10:51:24;;;;;;;1.42;0.88;;;;;;;29.70;28.40;99514.81;5045845;28;20042;-64
2023/07/23 10:54:02;;;;;;;5.28;0.82;;;;;;;29.32;29.11;99513.28;5046096;28;20049;-66
2023/07/23 10:56:40;;;;;;;1.42;0.70;;;;;;;29.46;29.45;99520.88;5046087;28;20049;-65
2023/07/23 10:59:08;;;;;;;1.33;0.73;;;;;;;29.84;28.98;99516.06;5028305;28;20025;-64
2023/07/23 11:01:36;;;;;;;0.60;0.50;;;;;;;29.90;28.39;99517.25;5046073;28;20051;-65
2023/07/23 11:04:10;;;;;;;2.50;1.08;;;;;;;29.75;28.63;99525.88;5045772;28;20060;-63
2023/07/23 11:06:37;;;;;;;1.17;0.65;;;;;;;29.07;29.36;99525.63;5046051;28;20018;-66
2023/07/23 11:09:10;;;;;;;0.85;0.55;;;;;;;28.15;29.94;99522.06;5045789;28;20481;-67
2023/07/23 11:11:40;;;;;;;1.02;0.50;;;;;;;27.19;30.76;99530.09;5044754;28;20060;-66
2023/07/23 11:14:17;;;;;;;0.60;0.55;;;;;;;26.34;31.55;99533.31;5046012;28;20048;-66
2023/07/23 11:16:43;;;;;;;0.77;0.60;;;;;;;25.73;32.52;99522.59;5046002;28;20045;-66
2023/07/23 11:19:09;;;;;;;1.30;0.70;;;;;;;25.35;32.71;99516.94;5045543;28;20053;-66
2023/07/23 11:21:46;;;;;;;1.15;0.60;;;;;;;24.71;33.84;99512.38;5045835;28;20405;-67
2023/07/23 11:24:12;;;;;;;1.73;0.90;;;;;;;24.36;34.74;99506.34;5045723;28;20025;-68
2023/07/23 11:26:38;;;;;;;0.60;0.50;;;;;;;24.23;35.05;99511.00;5045402;28;20050;-68
2023/07/23 11:29:06;;;;;;;1.55;0.65;;;;;;;24.02;35.76;99512.56;5045496;28;20025;-68
2023/07/23 11:31:34;;;;;;;1.42;0.77;;;;;;;23.82;35.70;99506.16;5045809;28;20049;-66
2023/07/23 11:34:00;;;;;;;1.25;0.80;;;;;;;23.48;36.53;99511.47;5045508;28;20078;-66
2023/07/23 11:36:27;;;;;;;1.05;0.90;;;;;;;23.11;37.02;99512.47;5046538;28;20071;-66
2023/07/23 11:38:57;;;;;;;1.35;0.77;;;;;;;22.77;37.49;99486.72;5045029;28;20046;-67
2023/07/23 11:41:41;;;;;;;2.88;0.57;;;;;;;22.71;37.83;99498.63;5045422;28;20269;-67
2023/07/23 11:44:08;;;;;;;1.63;0.98;;;;;;;22.58;38.12;99487.22;5045451;28;20033;-67
2023/07/23 11:46:35;;;;;;;1.08;0.68;;;;;;;22.54;38.66;99490.09;5045206;28;20026;-67
2023/07/23 11:49:02;;;;;;;0.93;0.63;;;;;;;22.37;39.17;99482.53;5045029;28;20021;-67